• Join FlightAware (Why Join?)
  • Login
  • US Flag 
10:45PM EDT


 

Airport Tracker/Info


-or-


 

Live Flight TrackerFlight Track Log ✈ RPA4907 ✈ 07-Aug-2013 ✈ KEWR - KBWI

Flight Track Log - Related Links

Times and Time Zones

All times are in EDT time to prevent confusion due to time zone crossing. See the RPA4907 flight status page for this flight to view local times or setup timezone preferences in your user account.

Time Position Orientation Groundspeed Altitude Reporting Facility
EDT Latitude Longitude Course Direction KTS MPH feet Rate Location/Type
02:22PM 40.6333 -74.2000 252° West 198 228 2,800  Level New York TRACON
02:23PM 40.6167 -74.2667 252° West 215 247 5,300 2,100 Climbing New York TRACON
02:24PM 40.6167 -74.3500 270° West 226 260 7,000 840 Climbing New York TRACON
02:25PM 40.6000 -74.4333 255° West 259 298 7,000  Level New York TRACON
02:26PM 40.6000 -74.5333 270° West 246 283 7,000  Level New York TRACON
02:27PM 40.5833 -74.6000 252° West 244 281 7,100  Climbing New York TRACON
02:28PM 40.5500 -74.6833 242° Southwest 249 287 7,100  Level New York TRACON
02:51PM 39.8833 -76.3833 243° Southwest 261 300 8,000  Climbing Potomac TRACON
02:52PM 39.8167 -76.4167 201° Southwest 255 293 8,000 -180 Level Potomac TRACON
02:53PM 39.7500 -76.4500 201° Southwest 256 295 7,700 -900 Descending Potomac TRACON
02:54PM 39.6833 -76.4667 191° South 251 289 6,300 -1,260 Descending Potomac TRACON
02:55PM 39.6167 -76.5000 201° Southwest 240 276 5,100 -660 Descending Potomac TRACON
02:56PM 39.5667 -76.5500 218° Southwest 224 258 5,000 -60 Descending Potomac TRACON
02:57PM 39.5167 -76.5833 238° Southwest 229 264 5,000  Level Potomac TRACON
02:58PM 39.4667 -76.6500 226° Southwest 240 276 5,000  Level Potomac TRACON
02:59PM 39.4333 -76.7167 237° Southwest 237 273 5,000 -420 Level Potomac TRACON
03:00PM 39.4000 -76.7833 237° Southwest 233 268 4,200 -540 Descending Potomac TRACON
03:01PM 39.3500 -76.8500 226° Southwest 220 253 4,000 -420 Descending Potomac TRACON
03:03PM 39.2500 -76.9000 201° Southwest 226 260 3,000 -360 Descending Potomac TRACON
03:04PM 39.2000 -76.9000 180° South 180 207 3,000 -480 Level Potomac TRACON
03:05PM 39.1833 -76.8333 108° East 188 216 2,100 -840 Descending Potomac TRACON
03:06PM 39.1833 -76.7833 90° East 179 206 1,400 -720 Descending Potomac TRACON
03:07PM 39.1833 -76.7167 90° East 131 151 700 -660 Descending Potomac TRACON